createdAt,value
2023-04-22T00:01:09.536Z,100949.09
2023-04-22T00:03:36.696Z,100952.66
2023-04-22T00:06:03.341Z,100954.84
2023-04-22T00:08:29.803Z,100947.03
2023-04-22T00:10:56.788Z,100940.09
2023-04-22T00:13:23.181Z,100941.41
2023-04-22T00:15:49.538Z,100931.94
2023-04-22T00:18:16.085Z,100935.25
2023-04-22T00:20:44.229Z,100927.97
2023-04-22T00:23:11.801Z,100927.47
2023-04-22T00:25:39.155Z,100926.88
2023-04-22T00:28:05.897Z,100933.09
2023-04-22T00:30:32.363Z,100932.09
2023-04-22T00:32:58.812Z,100933.13
2023-04-22T00:35:25.191Z,100930.84
2023-04-22T00:37:51.604Z,100929.69
2023-04-22T00:40:18.060Z,100930.41
2023-04-22T00:42:44.891Z,100938.81
2023-04-22T00:45:14.247Z,100934.75
2023-04-22T00:47:41.932Z,100935.19
2023-04-22T00:50:08.506Z,100927.72
2023-04-22T00:52:34.842Z,100935.59
2023-04-22T00:55:01.282Z,100939.31
2023-04-22T00:57:30.705Z,100942.22
2023-04-22T00:59:57.647Z,100943.84
2023-04-22T01:02:24.959Z,100944.69
2023-04-22T01:04:54.166Z,100941.38
2023-04-22T01:07:20.672Z,100942.63
2023-04-22T01:09:47.420Z,100940.53
2023-04-22T01:12:14.028Z,100949.00
2023-04-22T01:14:40.792Z,100943.03
2023-04-22T01:17:07.854Z,100943.47
2023-04-22T01:19:34.264Z,100939.16
2023-04-22T01:22:02.415Z,100943.88
2023-04-22T01:24:28.969Z,100943.88
2023-04-22T01:26:55.591Z,100946.38
2023-04-22T01:29:22.181Z,100951.97
2023-04-22T01:31:48.992Z,100948.25
2023-04-22T01:34:15.647Z,100929.81
2023-04-22T01:36:42.095Z,100937.22
2023-04-22T01:39:08.542Z,100942.59
2023-04-22T01:41:35.772Z,100940.13
2023-04-22T01:44:03.701Z,100942.00
2023-04-22T01:46:32.998Z,100943.00
2023-04-22T01:48:59.515Z,100945.91
2023-04-22T01:51:25.901Z,100943.84
2023-04-22T01:53:52.304Z,100942.38
2023-04-22T01:56:18.788Z,100942.81
2023-04-22T01:58:45.126Z,100936.97
2023-04-22T02:01:14.305Z,100931.81
2023-04-22T02:03:41.405Z,100935.53
2023-04-22T02:06:07.991Z,100938.03
2023-04-22T02:08:34.375Z,100934.97
2023-04-22T02:11:00.938Z,100937.66
2023-04-22T02:13:35.458Z,100935.56
2023-04-22T02:16:02.005Z,100934.13
2023-04-22T02:18:28.399Z,100944.25
2023-04-22T02:20:54.917Z,100934.53
2023-04-22T02:23:21.404Z,100932.28
2023-04-22T02:25:51.930Z,100928.16
2023-04-22T02:28:19.154Z,100932.50
2023-04-22T02:30:46.301Z,100929.81
2023-04-22T02:33:12.689Z,100928.19
2023-04-22T02:35:39.051Z,100920.72
2023-04-22T02:38:05.768Z,100920.91
2023-04-22T02:40:32.201Z,100910.78
2023-04-22T02:42:58.637Z,100914.28
2023-04-22T02:45:25.049Z,100908.72
2023-04-22T02:47:51.411Z,100920.72
2023-04-22T02:50:18.190Z,100914.94
2023-04-22T02:52:44.512Z,100912.25
2023-04-22T02:55:10.899Z,100910.78
2023-04-22T02:57:37.395Z,100915.97
2023-04-22T03:00:04.802Z,100913.13
2023-04-22T03:02:31.652Z,100898.50
2023-04-22T03:04:58.325Z,100905.94
2023-04-22T03:07:24.775Z,100904.06
2023-04-22T03:09:51.155Z,100909.22
2023-04-22T03:12:17.629Z,100900.13
2023-04-22T03:14:44.009Z,100904.25
2023-04-22T03:17:10.406Z,100902.59
2023-04-22T03:19:36.826Z,100895.13
2023-04-22T03:22:03.393Z,100890.56
2023-04-22T03:24:30.070Z,100892.63
2023-04-22T03:26:56.418Z,100889.28
2023-04-22T03:29:22.914Z,100891.00
2023-04-22T03:31:49.495Z,100892.03
2023-04-22T03:34:16.400Z,100896.19
2023-04-22T03:36:42.916Z,100893.91
2023-04-22T03:39:09.656Z,100882.75
2023-04-22T03:41:35.994Z,100884.84
2023-04-22T03:44:02.410Z,100877.81
2023-04-22T03:46:28.825Z,100878.63
2023-04-22T03:48:55.450Z,100873.03
2023-04-22T03:51:21.793Z,100875.50
2023-04-22T03:53:48.193Z,100871.19
2023-04-22T03:56:14.573Z,100870.13
2023-04-22T03:58:40.971Z,100875.50
2023-04-22T04:01:07.868Z,100866.63
2023-04-22T04:03:34.608Z,100862.47
2023-04-22T04:06:01.362Z,100856.69
2023-04-22T04:08:27.915Z,100861.69
2023-04-22T04:10:54.333Z,100859.38
2023-04-22T04:13:20.737Z,100849.28
2023-04-22T04:15:47.518Z,100850.47
2023-04-22T04:18:13.907Z,100851.50
2023-04-22T04:20:40.603Z,100847.97
2023-04-22T04:23:07.838Z,100843.41
2023-04-22T04:25:39.126Z,100844.81
2023-04-22T04:28:09.360Z,100842.13
2023-04-22T04:30:36.643Z,100834.31
2023-04-22T04:33:07.119Z,100836.16
2023-04-22T04:35:34.746Z,100839.66
2023-04-22T04:38:02.117Z,100840.91
2023-04-22T04:40:29.280Z,100835.56
2023-04-22T04:42:57.359Z,100844.88
2023-04-22T04:45:24.580Z,100847.56
2023-04-22T04:47:52.679Z,100860.81
2023-04-22T04:50:21.914Z,100841.56
2023-04-22T04:52:52.782Z,100838.66
2023-04-22T04:55:19.461Z,100826.22
2023-04-22T04:57:46.407Z,100827.69
2023-04-22T05:00:16.236Z,100819.38
2023-04-22T05:02:42.895Z,100822.03
2023-04-22T05:05:09.903Z,100819.34
2023-04-22T05:07:36.407Z,100823.03
2023-04-22T05:10:04.222Z,100821.78
2023-04-22T05:12:30.847Z,100818.41
2023-04-22T05:14:57.231Z,100824.19
2023-04-22T05:17:23.735Z,100829.75
2023-04-22T05:19:50.138Z,100828.47
2023-04-22T05:22:18.054Z,100829.91
2023-04-22T05:24:44.473Z,100830.31
2023-04-22T05:27:10.968Z,100835.69
2023-04-22T05:29:37.320Z,100842.31
2023-04-22T05:32:03.763Z,100840.22
2023-04-22T05:34:30.128Z,100841.03
2023-04-22T05:36:56.483Z,100845.75
2023-04-22T05:39:23.139Z,100842.03
2023-04-22T05:41:49.658Z,100836.34
2023-04-22T05:44:17.568Z,100840.41
2023-04-22T05:46:44.073Z,100841.63
2023-04-22T05:49:10.690Z,100848.59
2023-04-22T05:51:37.063Z,100854.03
2023-04-22T05:54:03.565Z,100846.34
2023-04-22T05:56:30.150Z,100839.19
2023-04-22T05:58:56.613Z,100833.53
2023-04-22T06:01:24.891Z,100840.53
2023-04-22T06:03:51.504Z,100842.09
2023-04-22T06:06:18.129Z,100839.28
2023-04-22T06:08:44.524Z,100841.31
2023-04-22T06:11:10.932Z,100844.31
2023-04-22T06:13:37.358Z,100844.25
2023-04-22T06:16:05.484Z,100838.25
2023-04-22T06:18:32.659Z,100833.59
2023-04-22T06:20:59.009Z,100830.00
2023-04-22T06:23:25.500Z,100825.06
2023-04-22T06:25:52.163Z,100831.09
2023-04-22T06:28:18.556Z,100822.22
2023-04-22T06:30:44.972Z,100824.53
2023-04-22T06:33:11.462Z,100810.84
2023-04-22T06:35:37.946Z,100814.53
2023-04-22T06:38:04.445Z,100811.75
2023-04-22T06:40:30.818Z,100808.56
2023-04-22T06:42:57.293Z,100807.53
2023-04-22T06:45:25.075Z,100799.53
2023-04-22T06:47:54.445Z,100793.50
2023-04-22T06:50:21.110Z,100792.41
2023-04-22T06:52:47.944Z,100782.63
2023-04-22T06:55:14.356Z,100786.25
2023-04-22T06:57:40.718Z,100790.59
2023-04-22T07:00:10.501Z,100787.97
2023-04-22T07:02:37.028Z,100783.56
2023-04-22T07:05:03.537Z,100775.59
2023-04-22T07:07:29.989Z,100776.44
2023-04-22T07:09:56.392Z,100771.88
2023-04-22T07:12:24.952Z,100771.88
2023-04-22T07:14:51.293Z,100769.25
2023-04-22T07:17:22.112Z,100772.28
2023-04-22T07:19:49.349Z,100772.75
2023-04-22T07:22:15.881Z,100776.44
2023-04-22T07:24:42.348Z,100780.88
2023-04-22T07:27:08.722Z,100784.91
2023-04-22T07:29:35.384Z,100783.84
2023-04-22T07:32:01.842Z,100781.69
2023-04-22T07:34:28.270Z,100770.03
2023-04-22T07:36:54.753Z,100780.72
2023-04-22T07:39:21.421Z,100778.94
2023-04-22T07:41:47.759Z,100763.72
2023-04-22T07:44:17.338Z,100770.88
2023-04-22T07:46:43.945Z,100766.44
2023-04-22T07:49:10.419Z,100776.06
2023-04-22T07:51:36.823Z,100787.50
2023-04-22T07:54:03.526Z,100785.13
2023-04-22T07:56:30.061Z,100782.06
2023-04-22T07:58:56.424Z,100783.38
2023-04-22T08:01:23.087Z,100786.78
2023-04-22T08:03:49.676Z,100785.88
2023-04-22T08:06:16.225Z,100795.72
2023-04-22T08:08:42.554Z,100795.44
2023-04-22T08:11:08.965Z,100801.09
2023-04-22T08:13:35.488Z,100795.63
2023-04-22T08:16:03.354Z,100783.41
2023-04-22T08:18:30.087Z,100779.94
2023-04-22T08:20:56.497Z,100766.34
2023-04-22T08:23:23.262Z,100758.38
2023-04-22T08:25:50.060Z,100749.47
2023-04-22T08:28:16.512Z,100755.34
2023-04-22T08:30:43.031Z,100746.88
2023-04-22T08:33:09.509Z,100727.97
2023-04-22T08:35:36.757Z,100722.03
2023-04-22T08:38:03.209Z,100715.81
2023-04-22T08:40:29.885Z,100719.84
2023-04-22T08:42:57.104Z,100721.22
2023-04-22T08:45:24.008Z,100725.34
2023-04-22T08:47:51.167Z,100724.00
2023-04-22T08:50:20.901Z,100720.94
2023-04-22T08:52:47.296Z,100726.63
2023-04-22T08:55:13.705Z,100721.72
2023-04-22T08:57:41.541Z,100729.06
2023-04-22T09:00:11.350Z,100710.03
2023-04-22T09:02:38.804Z,100718.47
2023-04-22T09:05:06.954Z,100721.13
2023-04-22T09:07:33.387Z,100715.94
2023-04-22T09:09:59.745Z,100714.66
2023-04-22T09:12:26.244Z,100721.59
2023-04-22T09:14:52.967Z,100715.97
2023-04-22T09:17:30.989Z,100712.47
2023-04-22T09:20:02.087Z,100702.09
2023-04-22T09:22:36.830Z,100694.59
2023-04-22T09:25:07.158Z,100691.25
2023-04-22T09:27:35.535Z,100687.41
2023-04-22T09:30:07.912Z,100690.81
2023-04-22T09:32:34.365Z,100686.25
2023-04-22T09:35:01.465Z,100687.41
2023-04-22T09:37:39.025Z,100676.47
2023-04-22T09:40:16.161Z,100684.22
2023-04-22T09:42:51.138Z,100681.41
2023-04-22T09:45:32.155Z,100668.47
2023-04-22T09:48:17.299Z,100662.81
2023-04-22T09:50:48.606Z,100657.75
2023-04-22T09:53:20.701Z,100643.09
2023-04-22T09:55:49.797Z,100656.69
2023-04-22T09:58:17.872Z,100655.03
2023-04-22T10:00:56.276Z,100647.00
2023-04-22T10:03:22.895Z,100644.56
2023-04-22T10:05:49.384Z,100643.56
2023-04-22T10:08:16.650Z,100648.06
2023-04-22T10:10:43.353Z,100636.13
2023-04-22T10:13:09.805Z,100641.50
2023-04-22T10:15:51.584Z,100630.81
2023-04-22T10:18:22.777Z,100633.03
2023-04-22T10:20:50.761Z,100631.41
2023-04-22T10:23:22.722Z,100631.69
2023-04-22T10:25:52.927Z,100638.69
2023-04-22T10:28:21.205Z,100633.78
2023-04-22T10:30:48.362Z,100635.28
2023-04-22T10:33:20.902Z,100647.59
2023-04-22T10:36:15.600Z,100649.38
2023-04-22T10:39:01.889Z,100653.28
2023-04-22T10:41:32.996Z,100654.09
2023-04-22T10:44:09.400Z,100649.94
2023-04-22T10:46:40.288Z,100647.41
2023-04-22T10:49:18.035Z,100657.78
2023-04-22T10:51:55.097Z,100659.91
2023-04-22T10:54:31.110Z,100656.28
2023-04-22T10:57:16.372Z,100661.09
2023-04-22T10:59:52.893Z,100666.91
2023-04-22T11:02:21.326Z,100666.50
2023-04-22T11:04:48.361Z,100658.94
2023-04-22T11:07:22.662Z,100665.75
2023-04-22T11:10:05.221Z,100674.88
2023-04-22T11:12:42.057Z,100674.41
2023-04-22T11:15:16.246Z,100669.63
2023-04-22T11:17:47.426Z,100670.84
2023-04-22T11:20:18.556Z,100665.84
2023-04-22T11:22:47.383Z,100663.94
2023-04-22T11:25:14.463Z,100660.28
2023-04-22T11:27:43.546Z,100657.13
2023-04-22T11:30:12.737Z,100640.53
2023-04-22T11:32:42.047Z,100650.59
2023-04-22T11:35:17.631Z,100658.69
2023-04-22T11:37:56.046Z,100667.72
2023-04-22T11:40:30.832Z,100663.34
2023-04-22T11:43:00.128Z,100678.44
2023-04-22T11:45:28.812Z,100675.59
2023-04-22T11:47:56.393Z,100670.75
2023-04-22T11:50:25.776Z,100678.34
2023-04-22T11:53:03.700Z,100675.81
2023-04-22T11:55:31.469Z,100678.75
2023-04-22T11:58:19.300Z,100697.44
2023-04-22T12:00:48.758Z,100694.84
2023-04-22T12:03:18.622Z,100679.09
2023-04-22T12:05:53.867Z,100692.25
2023-04-22T12:08:32.110Z,100694.84
2023-04-22T12:11:02.031Z,100699.66
2023-04-22T12:13:30.802Z,100698.28
2023-04-22T12:16:13.513Z,100687.66
2023-04-22T12:18:47.590Z,100693.13
2023-04-22T12:21:14.711Z,100686.34
2023-04-22T12:23:46.015Z,100681.13
2023-04-22T12:26:13.318Z,100692.56
2023-04-22T12:28:41.244Z,100693.13
2023-04-22T12:31:08.595Z,100694.19
2023-04-22T12:33:35.587Z,100697.44
2023-04-22T12:36:02.380Z,100692.97
2023-04-22T12:38:28.765Z,100700.09
2023-04-22T12:40:55.277Z,100706.16
2023-04-22T12:43:21.653Z,100696.38
2023-04-22T12:45:48.069Z,100701.81
2023-04-22T12:48:14.567Z,100698.31
2023-04-22T12:50:41.434Z,100696.41
2023-04-22T12:53:07.877Z,100702.72
2023-04-22T12:55:35.104Z,100700.53
2023-04-22T12:58:01.586Z,100697.00
2023-04-22T13:00:28.544Z,100694.81
2023-04-22T13:02:54.996Z,100695.94
2023-04-22T13:05:21.724Z,100696.00
2023-04-22T13:07:56.487Z,100698.75
2023-04-22T13:10:32.848Z,100693.00
2023-04-22T13:13:13.644Z,100692.47
2023-04-22T13:15:43.214Z,100688.94
2023-04-22T13:18:09.678Z,100681.56
2023-04-22T13:20:36.709Z,100681.25
2023-04-22T13:23:04.465Z,100682.38
2023-04-22T13:25:30.942Z,100683.72
2023-04-22T13:27:57.453Z,100696.00
2023-04-22T13:30:23.842Z,100698.72
2023-04-22T13:32:50.287Z,100694.09
2023-04-22T13:35:18.326Z,100694.38
2023-04-22T13:37:46.081Z,100692.47
2023-04-22T13:40:12.623Z,100699.84
2023-04-22T13:42:38.956Z,100711.28
2023-04-22T13:45:06.036Z,100710.47
2023-04-22T13:47:32.401Z,100711.81
2023-04-22T13:50:00.207Z,100708.53
2023-04-22T13:52:26.624Z,100705.75
2023-04-22T13:54:54.338Z,100700.84
2023-04-22T13:57:20.853Z,100707.41
2023-04-22T13:59:48.930Z,100710.75
2023-04-22T14:02:15.359Z,100717.03
2023-04-22T14:04:41.769Z,100716.75
2023-04-22T14:07:08.143Z,100710.44
2023-04-22T14:09:34.668Z,100709.38
2023-04-22T14:12:01.436Z,100701.22
2023-04-22T14:14:27.829Z,100703.94
2023-04-22T14:16:54.471Z,100703.13
2023-04-22T14:19:21.438Z,100700.38
2023-04-22T14:21:47.831Z,100706.94
2023-04-22T14:24:15.606Z,100703.09
2023-04-22T14:26:42.038Z,100702.84
2023-04-22T14:29:08.600Z,100704.75
2023-04-22T14:31:35.045Z,100703.97
2023-04-22T14:34:01.439Z,100697.69
2023-04-22T14:36:27.941Z,100694.94
2023-04-22T14:38:54.275Z,100697.66
2023-04-22T14:41:21.354Z,100693.31
2023-04-22T14:43:47.895Z,100699.84
2023-04-22T14:46:14.250Z,100700.63
2023-04-22T14:48:40.616Z,100702.28
2023-04-22T14:51:07.001Z,100702.03
2023-04-22T14:53:34.076Z,100704.75
2023-04-22T14:56:00.514Z,100699.84
2023-04-22T14:58:32.777Z,100690.59
2023-04-22T15:01:00.206Z,100697.69
2023-04-22T15:03:27.078Z,100705.31
2023-04-22T15:05:54.658Z,100704.47
2023-04-22T15:08:21.578Z,100699.56
2023-04-22T15:10:47.961Z,100700.94
2023-04-22T15:13:14.418Z,100695.78
2023-04-22T15:15:40.863Z,100703.13
2023-04-22T15:18:07.426Z,100695.25
2023-04-22T15:20:33.936Z,100701.22
2023-04-22T15:23:01.968Z,100700.41
2023-04-22T15:25:28.391Z,100703.13
2023-04-22T15:27:56.848Z,100708.31
2023-04-22T15:30:23.622Z,100705.06
2023-04-22T15:32:50.160Z,100703.66
2023-04-22T15:35:16.576Z,100700.09
2023-04-22T15:37:44.863Z,100717.81
2023-04-22T15:40:11.530Z,100718.34
2023-04-22T15:42:37.924Z,100711.25
2023-04-22T15:45:04.914Z,100721.03
2023-04-22T15:47:31.615Z,100720.75
2023-04-22T15:50:05.907Z,100724.81
2023-04-22T15:52:32.938Z,100731.06
2023-04-22T15:55:01.601Z,100726.69
2023-04-22T15:57:28.497Z,100729.66
2023-04-22T16:00:06.706Z,100713.84
2023-04-22T16:02:37.270Z,100731.22
2023-04-22T16:05:04.183Z,100720.00
2023-04-22T16:07:31.081Z,100731.00
2023-04-22T16:09:57.636Z,100736.66
2023-04-22T16:12:24.072Z,100738.91
2023-04-22T16:14:50.439Z,100738.75
2023-04-22T16:17:17.500Z,100739.72
2023-04-22T16:19:44.195Z,100747.78
2023-04-22T16:22:10.924Z,100750.88
2023-04-22T16:24:37.320Z,100762.72
2023-04-22T16:27:03.836Z,100761.03
2023-04-22T16:29:30.227Z,100764.31
2023-04-22T16:31:56.912Z,100760.22
2023-04-22T16:34:23.446Z,100760.97
2023-04-22T16:36:49.777Z,100764.78
2023-04-22T16:39:16.885Z,100768.00
2023-04-22T16:41:43.398Z,100776.44
2023-04-22T16:44:09.852Z,100780.47
2023-04-22T16:46:36.534Z,100783.81
2023-04-22T16:49:02.999Z,100781.69
2023-04-22T16:51:30.608Z,100787.72
2023-04-22T16:53:56.862Z,100787.38
2023-04-22T16:56:24.050Z,100790.47
2023-04-22T16:58:50.431Z,100784.19
2023-04-22T17:01:16.916Z,100773.41
2023-04-22T17:03:43.465Z,100772.81
2023-04-22T17:06:10.013Z,100770.16
2023-04-22T17:08:36.414Z,100767.75
2023-04-22T17:11:02.841Z,100772.13
2023-04-22T17:13:29.293Z,100765.81
2023-04-22T17:15:55.729Z,100764.88
2023-04-22T17:18:22.154Z,100763.94
2023-04-22T17:20:49.092Z,100762.56
2023-04-22T17:23:16.416Z,100759.34
2023-04-22T17:25:42.741Z,100760.22
2023-04-22T17:28:11.241Z,100761.03
2023-04-22T17:30:38.036Z,100762.84
2023-04-22T17:33:04.486Z,100768.78
2023-04-22T17:35:30.888Z,100768.59
2023-04-22T17:37:57.854Z,100781.94
2023-04-22T17:40:24.432Z,100782.69
2023-04-22T17:42:51.139Z,100776.38
2023-04-22T17:45:17.452Z,100766.81
2023-04-22T17:47:43.919Z,100772.97
2023-04-22T17:50:10.674Z,100782.28
2023-04-22T17:52:37.117Z,100778.75
2023-04-22T17:55:03.662Z,100779.19
2023-04-22T17:57:31.045Z,100780.97
2023-04-22T17:59:57.387Z,100780.13
2023-04-22T18:02:24.927Z,100791.16
2023-04-22T18:04:51.527Z,100789.84
2023-04-22T18:07:17.989Z,100786.72
2023-04-22T18:09:44.514Z,100785.59
2023-04-22T18:12:11.049Z,100790.38
2023-04-22T18:14:37.402Z,100793.75
2023-04-22T18:17:04.346Z,100800.88
2023-04-22T18:19:30.922Z,100809.06
2023-04-22T18:22:00.326Z,100803.31
2023-04-22T18:24:27.545Z,100821.41
2023-04-22T18:26:53.947Z,100823.78
2023-04-22T18:29:20.773Z,100817.63
2023-04-22T18:31:47.487Z,100822.84
2023-04-22T18:34:15.539Z,100826.81
2023-04-22T18:36:41.918Z,100831.84
2023-04-22T18:39:09.433Z,100844.00
2023-04-22T18:41:37.837Z,100833.91
2023-04-22T18:44:04.200Z,100852.72
2023-04-22T18:46:30.649Z,100844.66
2023-04-22T18:48:56.984Z,100842.53
2023-04-22T18:51:23.411Z,100850.81
2023-04-22T18:53:50.250Z,100846.56
2023-04-22T18:56:16.647Z,100861.28
2023-04-22T18:58:43.043Z,100870.53
2023-04-22T19:01:09.750Z,100871.63
2023-04-22T19:03:36.443Z,100874.59
2023-04-22T19:06:03.029Z,100876.50
2023-04-22T19:08:29.369Z,100876.88
2023-04-22T19:10:55.896Z,100884.31
2023-04-22T19:13:29.238Z,100891.63
2023-04-22T19:15:56.486Z,100888.19
2023-04-22T19:18:22.999Z,100896.78
2023-04-22T19:20:49.534Z,100895.16
2023-04-22T19:23:16.294Z,100895.84
2023-04-22T19:25:42.676Z,100889.03
2023-04-22T19:28:09.093Z,100896.66
2023-04-22T19:30:35.486Z,100901.13
2023-04-22T19:33:02.244Z,100899.41
2023-04-22T19:35:28.794Z,100901.94
2023-04-22T19:37:55.188Z,100907.13
2023-04-22T19:40:21.518Z,100901.94
2023-04-22T19:42:47.909Z,100911.94
2023-04-22T19:45:14.522Z,100915.31
2023-04-22T19:47:40.989Z,100904.50
2023-04-22T19:50:09.194Z,100902.75
2023-04-22T19:52:36.406Z,100901.81
2023-04-22T19:55:08.993Z,100896.88
2023-04-22T19:57:37.305Z,100905.59
2023-04-22T20:00:07.702Z,100901.50
2023-04-22T20:02:38.397Z,100899.09
2023-04-22T20:05:05.769Z,100902.03
2023-04-22T20:07:33.254Z,100903.00
2023-04-22T20:10:02.206Z,100909.44
2023-04-22T20:12:29.414Z,100917.88
2023-04-22T20:14:57.947Z,100908.63
2023-04-22T20:17:25.414Z,100912.59
2023-04-22T20:19:52.723Z,100908.66
2023-04-22T20:22:22.845Z,100913.81
2023-04-22T20:25:02.688Z,100910.88
2023-04-22T20:27:30.618Z,100915.19
2023-04-22T20:30:01.108Z,100911.97
2023-04-22T20:32:28.414Z,100911.00
2023-04-22T20:34:55.908Z,100911.31
2023-04-22T20:37:23.780Z,100903.38
2023-04-22T20:39:51.554Z,100906.00
2023-04-22T20:42:18.774Z,100902.00
2023-04-22T20:44:45.248Z,100896.38
2023-04-22T20:47:11.933Z,100893.91
2023-04-22T20:49:42.921Z,100886.84
2023-04-22T20:52:11.043Z,100897.19
2023-04-22T20:54:39.045Z,100891.47
2023-04-22T20:57:06.372Z,100890.31
2023-04-22T20:59:33.623Z,100889.09
2023-04-22T21:02:01.132Z,100892.13
2023-04-22T21:04:27.951Z,100884.56
2023-04-22T21:06:55.600Z,100891.63
2023-04-22T21:09:24.729Z,100889.38
2023-04-22T21:11:52.284Z,100900.59
2023-04-22T21:14:20.908Z,100896.47
2023-04-22T21:16:56.053Z,100898.44
2023-04-22T21:19:23.130Z,100889.44
2023-04-22T21:21:49.942Z,100885.72
2023-04-22T21:24:18.400Z,100890.06
2023-04-22T21:26:47.272Z,100875.84
2023-04-22T21:29:13.958Z,100887.94
2023-04-22T21:31:40.561Z,100888.28
2023-04-22T21:34:09.686Z,100886.22
2023-04-22T21:36:36.066Z,100888.41
2023-04-22T21:39:04.419Z,100878.97
2023-04-22T21:41:31.226Z,100882.63
2023-04-22T21:43:57.540Z,100880.56
2023-04-22T21:46:24.470Z,100879.50
2023-04-22T21:48:50.947Z,100873.91
2023-04-22T21:51:17.422Z,100875.25
2023-04-22T21:53:44.674Z,100884.97
2023-04-22T21:56:11.188Z,100897.59
2023-04-22T21:58:37.542Z,100899.84
2023-04-22T22:01:04.038Z,100897.06
2023-04-22T22:03:31.587Z,100900.09
2023-04-22T22:05:58.209Z,100888.72
2023-04-22T22:08:24.691Z,100897.00
2023-04-22T22:10:51.094Z,100897.66
2023-04-22T22:13:17.460Z,100905.53
2023-04-22T22:15:43.831Z,100907.56
2023-04-22T22:18:10.238Z,100894.69
2023-04-22T22:20:36.693Z,100899.78
2023-04-22T22:23:03.442Z,100897.63
2023-04-22T22:25:29.869Z,100899.56
2023-04-22T22:27:56.213Z,100905.13
2023-04-22T22:30:22.662Z,100912.06
2023-04-22T22:32:49.291Z,100903.53
2023-04-22T22:35:16.249Z,100904.41
2023-04-22T22:37:42.724Z,100896.78
2023-04-22T22:40:10.083Z,100904.53
2023-04-22T22:42:36.484Z,100910.94
2023-04-22T22:45:05.002Z,100905.63
2023-04-22T22:47:31.460Z,100910.41
2023-04-22T22:49:57.871Z,100913.56
2023-04-22T22:52:24.381Z,100917.31
2023-04-22T22:54:50.738Z,100921.25
2023-04-22T22:57:17.042Z,100923.16
2023-04-22T22:59:43.420Z,100922.09
2023-04-22T23:02:10.239Z,100923.31
2023-04-22T23:04:37.163Z,100918.13
2023-04-22T23:07:03.826Z,100926.00
2023-04-22T23:09:30.333Z,100921.66
2023-04-22T23:11:56.678Z,100918.13
2023-04-22T23:14:24.001Z,100922.34
2023-04-22T23:16:50.869Z,100928.38
2023-04-22T23:19:18.282Z,100920.72
2023-04-22T23:21:45.826Z,100918.03
2023-04-22T23:24:14.379Z,100927.78
2023-04-22T23:26:41.254Z,100921.56
2023-04-22T23:29:08.393Z,100917.84
2023-04-22T23:31:36.542Z,100915.13
2023-04-22T23:34:05.456Z,100910.56
2023-04-22T23:36:33.752Z,100916.16
2023-04-22T23:39:00.839Z,100906.66
2023-04-22T23:41:27.384Z,100900.69
2023-04-22T23:43:53.802Z,100887.59
2023-04-22T23:46:20.343Z,100895.44
2023-04-22T23:48:47.167Z,100889.47
2023-04-22T23:51:16.219Z,100880.31
2023-04-22T23:53:46.643Z,100876.56
2023-04-22T23:56:14.265Z,100875.53
2023-04-22T23:58:41.006Z,100872.41
